Taylor Fork

This weather station provides wind speed, gust or max wind speed, and wind direction at 9460 ft. near Pika Point above Sunlight Basin.  

This data can be used with temperature and precipitation data from the Carrot Basin SNOTEL site. If the data below is not displayed or up to date, view data here.

Elevation
9460ft
Jump to table bottom
Date Time Temperature
deg F
RH, % Wind Speed Wind Gust Wind Direction
01/17/22 20:00 27.7 61 14 27 W - 272
01/17/22 19:00 28.3 58 13 26 W - 286
01/17/22 18:00 28.5 57 15 29 NW - 298
01/17/22 17:00 28.0 58 13 21 W - 292
01/17/22 16:00 30.1 51 16 24 NW - 295
01/17/22 15:00 31.5 48 17 27 NW - 298
01/17/22 14:00 31.9 49 13 20 NW - 293
01/17/22 13:00 31.9 48 15 25 NW - 312
01/17/22 12:00 30.9 51 14 24 NW - 317
01/17/22 11:00 30.5 49 17 31 NW - 307
01/17/22 10:00 25.3 64 15 30 NW - 303
01/17/22 09:00 30.3 46 17 29 NW - 326
01/17/22 08:00 28.5 52 19 33 NW - 307
01/17/22 07:00 26.9 58 17 30 NW - 305
01/17/22 06:00 25.1 64 12 20 W - 279
01/17/22 05:00 24.3 68 15 22 W - 289
01/17/22 04:00 25.0 69 14 25 NW - 295
01/17/22 03:00 25.3 70 17 25 NW - 293
01/17/22 02:00 24.4 70 17 27 W - 282
01/17/22 01:00 26.6 65 12 27 W - 279
01/17/22 00:00 28.7 62 14 24 W - 282
01/16/22 23:00 25.5 71 12 21 W - 272
01/16/22 22:00 23.6 72 15 25 W - 268
01/16/22 21:00 24.8 66 17 28 W - 275
01/16/22 20:00 25.3 66 16 26 W - 267
01/16/22 19:00 26.2 60 17 26 W - 261
01/16/22 18:00 24.4 64 18 27 W - 281
01/16/22 17:00 24.6 63 14 20 W - 270
01/16/22 16:00 26.1 57 11 19 SW - 212
01/16/22 15:00 28.1 51 10 18 SW - 229
01/16/22 14:00 24.9 59 9 14 SW - 236
01/16/22 13:00 26.3 54 8 15 SW - 233
01/16/22 12:00 26.2 52 7 13 SW - 220
01/16/22 11:00 25.5 53 3 7 SW - 216
01/16/22 10:00 25.5 52 2 5 SE - 117
01/16/22 09:00 24.2 53 3 7 NE - 31
01/16/22 08:00 23.2 54 6 10 N - 357
01/16/22 07:00 23.1 55 6 13 N - 357
01/16/22 06:00 23.5 54 5 12 N - 338
01/16/22 05:00 24.7 54 9 16 NW - 307
01/16/22 04:00 24.5 53 12 20 NW - 306
01/16/22 03:00 24.7 54 14 25 NW - 299
01/16/22 02:00 24.2 54 13 23 NW - 305
01/16/22 01:00 25.2 49 16 27 W - 292
01/16/22 00:00 25.0 51 12 20 W - 284
01/15/22 23:00 25.3 51 15 28 W - 286
01/15/22 22:00 26.2 47 19 31 NW - 307
01/15/22 21:00 26.4 50 17 27 NW - 300
01/15/22 20:00 26.1 50 18 37 NW - 299
01/15/22 19:00 27.0 44 20 40 NW - 295